Time;durP1;ratioP1;P1;durP2;ratioP2;P2;SDS_P1;SDS_P2;PMS_P1;PMS_P2;Temp;Humidity;BMP_temperature;BMP_pressure;BME280_temperature;BME280_humidity;BME280_pressure;Samples;Min_cycle;Max_cycle;Signal;HPM_P1;HPM_P2
2021/12/25 00:00:24;;;;;;;40.63;26.85;;;;;;;5.64;85.42;98711.44;5116732;28;20039;-60
2021/12/25 00:02:55;;;;;;;37.55;24.40;;;;;;;5.62;85.29;98699.41;5099002;28;20062;-60
2021/12/25 00:05:28;;;;;;;37.35;25.23;;;;;;;5.62;85.14;98694.28;5116453;28;20035;-60
2021/12/25 00:08:03;;;;;;;38.25;25.38;;;;;;;5.62;84.80;98696.84;5132357;27;20039;-59
2021/12/25 00:10:35;;;;;;;37.38;25.13;;;;;;;5.63;85.34;98693.44;5116458;28;20528;-59
2021/12/25 00:13:05;;;;;;;38.42;25.58;;;;;;;5.63;84.96;98693.44;5081126;28;20027;-59
2021/12/25 00:15:44;;;;;;;39.60;26.63;;;;;;;5.62;85.22;98694.28;5098560;28;20040;-60
2021/12/25 00:18:11;;;;;;;32.92;23.58;;;;;;;5.62;85.74;98689.97;5098221;28;20760;-59
2021/12/25 00:20:47;;;;;;;32.88;22.00;;;;;;;5.63;85.43;98690.88;5097858;28;20034;-59
2021/12/25 00:23:21;;;;;;;32.55;23.27;;;;;;;5.61;84.82;98693.38;5098056;28;20074;-59
2021/12/25 00:26:03;;;;;;;35.40;23.05;;;;;;;5.63;85.06;98696.00;5116042;28;20039;-59
2021/12/25 00:36:21;;;;;;;35.10;23.58;;;;;;;5.62;85.02;98676.28;5115678;28;20031;-60
2021/12/25 00:38:54;;;;;;;36.50;24.40;;;;;;;5.61;85.39;98677.97;5116129;28;20089;-59
2021/12/25 00:41:30;;;;;;;36.45;24.95;;;;;;;5.61;85.21;98690.81;5098139;28;20047;-59
2021/12/25 00:44:03;;;;;;;38.75;24.92;;;;;;;5.61;84.71;98685.69;5115966;28;20071;-59
2021/12/25 00:46:39;;;;;;;38.00;24.30;;;;;;;5.61;85.17;98680.53;5080966;28;20042;-60
2021/12/25 00:49:16;;;;;;;44.72;27.58;;;;;;;5.62;85.07;98676.28;5097850;28;20055;-59
2021/12/25 00:51:47;;;;;;;36.25;23.70;;;;;;;5.62;85.32;98676.28;5080422;28;20047;-59
2021/12/25 00:54:21;;;;;;;;;;;;;;;5.62;85.15;98678.84;5097315;28;20036;-59
2021/12/25 00:56:54;;;;;;;36.53;24.38;;;;;;;5.61;85.15;98677.13;5131359;27;20282;-59
2021/12/25 00:59:27;;;;;;;38.15;26.25;;;;;;;5.60;84.96;98673.69;5097650;28;20078;-59
2021/12/25 01:01:55;;;;;;;34.08;23.88;;;;;;;5.60;85.62;98670.25;5115433;28;20119;-59
2021/12/25 01:04:23;;;;;;;37.60;25.15;;;;;;;5.61;84.98;98679.69;5097088;28;20433;-59
2021/12/25 01:06:57;;;;;;;36.75;24.85;;;;;;;5.61;85.00;98677.97;5080026;28;20106;-59
2021/12/25 01:09:30;;;;;;;35.85;26.13;;;;;;;5.61;85.18;98671.97;5115497;28;20047;-59
2021/12/25 01:12:05;;;;;;;34.45;25.42;;;;;;;5.61;84.90;98672.81;5097600;28;20031;-59
2021/12/25 01:14:44;;;;;;;33.65;24.30;;;;;;;5.61;84.98;98670.25;5080388;28;20031;-59
2021/12/25 01:20:37;;;;;;;34.05;23.20;;;;;;;5.62;85.43;98671.13;5114949;28;20050;-60
2021/12/25 01:26:32;;;;;;;30.52;21.70;;;;;;;5.61;85.17;98670.25;5115009;28;20040;-59
2021/12/25 01:29:40;;;;;;;34.67;22.35;;;;;;;5.62;85.26;98668.56;5096800;28;20444;-59
2021/12/25 01:48:52;;;;;;;39.05;25.90;;;;;;;5.63;85.57;98672.88;5114682;28;20421;-59
2021/12/25 01:51:26;;;;;;;35.28;24.23;;;;;;;5.63;85.16;98670.28;5079167;28;20034;-59
2021/12/25 01:53:57;;;;;;;40.00;25.23;;;;;;;5.62;85.18;98666.84;5112983;28;20046;-59
2021/12/25 01:56:28;;;;;;;42.30;24.55;;;;;;;5.63;85.05;98668.56;5096227;28;20588;-59
2021/12/25 01:59:02;;;;;;;38.10;25.52;;;;;;;5.64;85.06;98669.47;5130436;27;20108;-59
2021/12/25 02:01:35;;;;;;;36.58;25.15;;;;;;;5.65;84.90;98668.63;5096261;28;20110;-59
2021/12/25 02:04:12;;;;;;;38.72;24.60;;;;;;;5.64;85.07;98664.31;5096423;28;20032;-60
2021/12/25 02:06:51;;;;;;;43.25;27.08;;;;;;;5.64;85.03;98661.75;5114443;28;20031;-60
2021/12/25 02:09:22;;;;;;;42.30;26.83;;;;;;;5.66;84.79;98661.75;5096304;28;20394;-60
2021/12/25 02:11:57;;;;;;;39.75;26.50;;;;;;;5.66;85.38;98661.75;5096195;28;20371;-60
2021/12/25 02:14:25;;;;;;;41.00;26.90;;;;;;;5.66;85.12;98661.75;5079034;28;20050;-60
2021/12/25 02:17:12;;;;;;;43.50;27.60;;;;;;;5.66;85.13;98662.63;5079000;28;20039;-59
2021/12/25 02:19:50;;;;;;;38.20;25.95;;;;;;;5.66;85.39;98657.50;5114229;28;20039;-59
2021/12/25 02:22:27;;;;;;;38.20;26.35;;;;;;;5.66;85.24;98654.91;5096340;28;20054;-59
2021/12/25 02:24:59;;;;;;;38.15;26.45;;;;;;;5.66;85.25;98656.63;5095816;28;20550;-59
2021/12/25 02:27:30;;;;;;;38.67;25.52;;;;;;;5.66;85.57;98649.78;5096092;28;20042;-59
2021/12/25 02:30:07;;;;;;;42.03;26.15;;;;;;;5.67;85.04;98643.78;5079755;28;20051;-59
2021/12/25 02:32:43;;;;;;;37.05;25.52;;;;;;;5.68;85.23;98644.66;5114367;28;20429;-59
2021/12/25 02:35:17;;;;;;;40.10;27.60;;;;;;;5.68;85.16;98644.66;5114602;28;20035;-59
2021/12/25 02:37:51;;;;;;;46.40;28.40;;;;;;;5.68;85.34;98645.53;5079577;28;20032;-59
2021/12/25 02:40:25;;;;;;;44.03;26.92;;;;;;;5.68;85.67;98645.53;5095683;28;20490;-59
2021/12/25 02:43:02;;;;;;;42.50;28.08;;;;;;;5.68;85.59;98639.50;5095760;28;20032;-59
2021/12/25 02:45:36;;;;;;;44.45;27.52;;;;;;;5.68;85.48;98640.38;5095839;28;20467;-59
2021/12/25 02:48:19;;;;;;;40.50;26.85;;;;;;;5.68;85.18;98637.81;5095917;28;20035;-59
2021/12/25 02:50:51;;;;;;;45.75;27.27;;;;;;;5.69;85.10;98636.09;5096265;28;20036;-59
2021/12/25 02:53:22;;;;;;;41.20;26.58;;;;;;;5.69;85.17;98633.53;5096370;28;20409;-59
2021/12/25 02:56:01;;;;;;;38.85;25.65;;;;;;;5.68;85.36;98631.78;5113744;28;20039;-59
2021/12/25 02:58:34;;;;;;;45.90;28.50;;;;;;;5.69;85.56;98630.94;5114183;28;20118;-59
2021/12/25 03:01:24;;;;;;;47.10;30.00;;;;;;;5.69;85.20;98629.22;5113906;28;20040;-59
2021/12/25 03:04:00;;;;;;;42.45;28.02;;;;;;;5.68;84.98;98624.97;5095373;28;20111;-59
2021/12/25 03:06:37;;;;;;;46.50;27.88;;;;;;;5.68;85.07;98626.66;5095804;28;20108;-59
2021/12/25 03:09:11;;;;;;;41.20;28.05;;;;;;;5.68;85.29;98627.53;5113888;28;20142;-59
2021/12/25 03:11:46;;;;;;;41.53;28.50;;;;;;;5.70;85.48;98625.81;5095823;28;20059;-59
2021/12/25 03:14:33;;;;;;;45.88;31.90;;;;;;;5.69;85.29;98618.09;5095553;28;20042;-59
2021/12/25 03:17:10;;;;;;;46.75;29.95;;;;;;;5.69;85.34;98620.66;5095460;28;20395;-60
2021/12/25 03:19:41;;;;;;;47.45;32.60;;;;;;;5.69;85.74;98618.09;5099979;28;20035;-59
2021/12/25 03:22:16;;;;;;;43.38;29.80;;;;;;;5.68;85.91;98617.25;5117196;28;20039;-59
2021/12/25 03:24:50;;;;;;;42.15;29.77;;;;;;;5.69;85.14;98621.53;5082425;28;20053;-59
2021/12/25 03:27:21;;;;;;;43.22;29.52;;;;;;;5.68;85.48;98617.25;5082201;28;20052;-59
2021/12/25 03:30:01;;;;;;;49.10;30.20;;;;;;;5.69;85.10;98618.09;5115910;28;20073;-59
2021/12/25 03:32:37;;;;;;;42.45;30.05;;;;;;;5.69;85.30;98621.53;5098605;28;20155;-59
2021/12/25 03:35:09;;;;;;;41.40;29.42;;;;;;;5.69;85.25;98618.09;5099093;28;20039;-59
2021/12/25 03:37:40;;;;;;;46.30;29.45;;;;;;;5.70;85.34;98619.81;5099311;28;20042;-59
2021/12/25 03:40:17;;;;;;;50.13;31.88;;;;;;;5.70;85.19;98617.25;5081673;28;20498;-59
2021/12/25 03:42:48;;;;;;;50.47;29.75;;;;;;;5.69;85.76;98605.25;5116936;28;20038;-59
2021/12/25 03:45:27;;;;;;;46.92;30.85;;;;;;;5.69;85.22;98600.09;5116856;28;20028;-59
2021/12/25 03:48:06;;;;;;;43.53;30.42;;;;;;;5.69;85.49;98610.38;5117012;28;20512;-59
2021/12/25 03:59:00;;;;;;;42.50;27.75;;;;;;;5.69;85.45;98615.53;5116678;28;20051;-59
2021/12/25 04:01:57;;;;;;;43.47;28.85;;;;;;;5.68;85.75;98616.38;5115810;28;20031;-59
2021/12/25 04:04:38;;;;;;;43.55;28.88;;;;;;;5.69;85.47;98618.94;5097602;28;20065;-59
2021/12/25 04:10:00;;;;;;;36.22;25.77;;;;;;;5.68;85.61;98612.09;5116733;28;20039;-59
2021/12/25 04:12:36;;;;;;;38.97;26.85;;;;;;;5.69;85.65;98616.38;5098504;28;20118;-60
2021/12/25 04:15:10;;;;;;;42.72;27.90;;;;;;;5.69;85.69;98610.38;5116580;28;20063;-60
2021/12/25 04:17:44;;;;;;;40.20;27.52;;;;;;;5.69;85.58;98612.97;5098203;28;20067;-60
2021/12/25 04:20:21;;;;;;;42.03;26.08;;;;;;;5.70;85.35;98618.09;5098375;28;20031;-60
2021/12/25 04:23:05;;;;;;;36.10;25.42;;;;;;;5.70;85.20;98619.81;5116242;28;20036;-60
2021/12/25 04:28:15;;;;;;;37.05;25.35;;;;;;;5.71;85.55;98616.41;5111488;27;20331;-59
2021/12/25 04:48:47;;;;;;;33.00;23.63;;;;;;;5.70;85.69;98630.09;5111316;28;20046;-59
2021/12/25 05:04:33;;;;;;;26.02;20.15;;;;;;;5.68;85.27;98642.06;5092299;28;20044;-59
2021/12/25 05:07:08;;;;;;;27.05;19.50;;;;;;;5.66;85.37;98641.19;5111206;28;20036;-60
2021/12/25 05:09:42;;;;;;;25.63;19.23;;;;;;;5.65;85.65;98640.34;5110821;28;20081;-59
2021/12/25 05:12:16;;;;;;;25.15;18.13;;;;;;;5.66;85.70;98636.06;5092480;28;20059;-59
2021/12/25 05:14:49;;;;;;;22.73;17.25;;;;;;;5.64;85.26;98642.03;5110328;28;20035;-59
2021/12/25 05:17:23;;;;;;;24.67;17.13;;;;;;;5.63;85.73;98648.00;5076166;28;20122;-59
2021/12/25 05:20:02;;;;;;;21.10;16.23;;;;;;;5.62;85.73;98643.72;5092889;28;20079;-60
2021/12/25 05:22:36;;;;;;;20.55;15.40;;;;;;;5.62;85.67;98642.88;5092138;28;20031;-59
2021/12/25 05:25:12;;;;;;;22.30;16.55;;;;;;;5.60;85.92;98640.28;5092810;28;20048;-59
2021/12/25 05:27:49;;;;;;;;;;;;;;;5.60;85.54;98641.97;5076128;28;20048;-59
2021/12/25 05:30:26;;;;;;;20.70;14.95;;;;;;;5.59;85.30;98641.13;5092674;28;19958;-59
2021/12/25 05:32:59;;;;;;;21.13;15.27;;;;;;;5.59;85.70;98651.41;5092544;28;20039;-59
2021/12/25 05:35:33;;;;;;;18.98;15.27;;;;;;;5.56;85.53;98650.47;5110356;28;20063;-59
2021/12/25 05:38:13;;;;;;;17.30;14.43;;;;;;;5.57;85.38;98650.53;5085930;28;20562;-60
2021/12/25 05:40:47;;;;;;;19.58;16.33;;;;;;;5.53;85.18;98653.88;5078213;28;20039;-59
2021/12/25 05:43:18;;;;;;;18.45;14.60;;;;;;;5.54;85.30;98658.19;5078453;28;20032;-59
2021/12/25 05:45:49;;;;;;;19.88;15.15;;;;;;;5.53;85.41;98665.88;5095086;28;20032;-59
2021/12/25 05:48:21;;;;;;;19.88;16.45;;;;;;;5.53;85.86;98681.31;5061462;28;20039;-59
2021/12/25 05:50:54;;;;;;;18.67;14.82;;;;;;;5.51;85.48;98678.69;5061159;28;20491;-59
2021/12/25 05:53:26;;;;;;;17.20;14.50;;;;;;;5.50;85.87;98682.09;5096456;28;20032;-59
2021/12/25 05:55:57;;;;;;;18.10;14.70;;;;;;;5.47;85.70;98682.94;5078212;28;20105;-59
2021/12/25 05:58:31;;;;;;;16.88;14.10;;;;;;;5.49;85.43;98681.25;5078402;28;20040;-59
2021/12/25 06:01:05;;;;;;;17.42;14.18;;;;;;;5.47;86.04;98676.91;5096147;28;20036;-59
2021/12/25 06:03:36;;;;;;;;;;;;;;;5.45;85.66;98683.75;5096739;28;20081;-59
2021/12/25 06:06:15;;;;;;;14.05;12.20;;;;;;;5.43;85.32;98681.16;5061543;28;20294;-60
2021/12/25 06:08:53;;;;;;;15.90;12.35;;;;;;;5.41;85.69;98676.84;5095890;28;20058;-59
2021/12/25 06:11:26;;;;;;;14.68;11.70;;;;;;;5.42;86.04;98686.28;5078345;28;20039;-59
2021/12/25 06:14:08;;;;;;;14.68;12.32;;;;;;;5.41;85.79;98694.81;5094944;28;20474;-59
2021/12/25 06:16:42;;;;;;;14.30;11.48;;;;;;;5.40;85.24;98699.09;5077939;28;20047;-59
2021/12/25 06:19:13;;;;;;;13.35;11.95;;;;;;;5.39;85.82;98693.94;5077758;28;20027;-59
2021/12/25 06:21:53;;;;;;;11.82;10.55;;;;;;;5.38;85.63;98690.47;5060826;28;20098;-59
2021/12/25 06:24:23;;;;;;;13.00;11.35;;;;;;;5.37;86.01;98698.19;5095707;28;20116;-59
2021/12/25 06:26:56;;;;;;;12.50;11.10;;;;;;;5.36;85.67;98694.75;5056955;28;20061;-60
2021/12/25 06:29:31;;;;;;;12.68;10.75;;;;;;;5.36;85.60;98693.88;5075341;28;20056;-59
2021/12/25 06:32:05;;;;;;;13.80;11.57;;;;;;;5.34;85.79;98699.84;5075075;28;20036;-59
2021/12/25 06:34:36;;;;;;;13.23;11.27;;;;;;;5.32;85.73;98708.38;5074254;28;20036;-59
2021/12/25 06:37:14;;;;;;;13.65;11.65;;;;;;;5.30;85.69;98715.22;5075426;28;20139;-59
2021/12/25 06:39:47;;;;;;;13.38;11.20;;;;;;;5.29;85.87;98713.47;5057414;28;20127;-59
2021/12/25 06:42:20;;;;;;;12.13;10.63;;;;;;;5.28;85.55;98719.44;5075358;28;20036;-59
2021/12/25 06:44:55;;;;;;;12.70;10.45;;;;;;;5.26;85.30;98723.69;5057045;28;20036;-59
2021/12/25 06:47:28;;;;;;;13.57;11.88;;;;;;;5.27;85.87;98720.28;5074032;28;20036;-59
2021/12/25 06:49:59;;;;;;;11.55;10.32;;;;;;;5.26;85.98;98739.09;5056109;28;20400;-59
2021/12/25 06:52:38;;;;;;;10.75;9.55;;;;;;;5.26;85.88;98728.84;5073681;28;20042;-60
2021/12/25 06:55:11;;;;;;;11.55;10.15;;;;;;;5.23;85.92;98724.53;5075052;28;20065;-59
2021/12/25 06:57:53;;;;;;;11.52;10.32;;;;;;;5.24;85.25;98730.50;5073759;28;20044;-59
2021/12/25 07:00:26;;;;;;;11.18;9.63;;;;;;;5.22;85.14;98729.63;5074905;28;20037;-59
2021/12/25 07:03:00;;;;;;;10.70;9.60;;;;;;;5.20;85.50;98731.31;5073468;28;20054;-60
2021/12/25 07:05:34;;;;;;;11.43;10.32;;;;;;;5.19;85.73;98743.28;5090709;28;20032;-59
2021/12/25 07:08:08;;;;;;;11.82;9.75;;;;;;;5.17;85.43;98742.38;5073244;28;20395;-59
2021/12/25 07:10:39;;;;;;;11.82;10.35;;;;;;;5.17;85.14;98745.84;5073374;28;20085;-59
2021/12/25 07:13:17;;;;;;;11.40;10.15;;;;;;;5.16;85.86;98751.81;5056687;28;20044;-59
2021/12/25 07:15:50;;;;;;;10.30;9.18;;;;;;;5.16;85.71;98750.94;5074598;28;20107;-60
2021/12/25 07:18:16;;;;;;;11.63;10.02;;;;;;;5.16;85.61;98759.50;5056417;28;20040;-59
2021/12/25 07:20:42;;;;;;;11.48;9.38;;;;;;;5.15;86.06;98773.19;5074092;28;20028;-59
2021/12/25 07:23:13;;;;;;;11.93;9.50;;;;;;;5.13;85.32;98772.31;5074060;28;20090;-59
2021/12/25 07:25:42;;;;;;;10.27;9.05;;;;;;;5.10;85.24;98769.66;5057491;28;20117;-59
2021/12/25 07:28:08;;;;;;;10.32;8.95;;;;;;;5.11;85.31;98776.53;5093109;28;20158;-59
2021/12/25 07:30:41;;;;;;;10.30;9.02;;;;;;;5.07;85.61;98768.75;5094609;28;20123;-59
2021/12/25 07:33:14;;;;;;;11.10;9.02;;;;;;;5.06;85.32;98767.03;5094555;28;20119;-59
2021/12/25 07:35:41;;;;;;;10.00;8.73;;;;;;;5.06;85.65;98770.44;5110448;28;20040;-59
2021/12/25 07:38:12;;;;;;;10.88;9.52;;;;;;;5.05;85.58;98767.88;5059422;28;20122;-59
2021/12/25 07:40:46;;;;;;;10.20;8.80;;;;;;;5.04;85.59;98769.59;5110225;28;20185;-59
2021/12/25 07:43:17;;;;;;;11.60;9.85;;;;;;;5.04;85.13;98779.84;5110468;28;20054;-59
2021/12/25 07:45:54;;;;;;;10.70;9.18;;;;;;;5.02;85.40;98773.81;5093055;28;20043;-59
2021/12/25 07:48:31;;;;;;;10.07;8.98;;;;;;;5.02;85.35;98776.38;5110144;28;20044;-59
2021/12/25 07:51:03;;;;;;;10.75;9.55;;;;;;;5.02;85.90;98782.38;5094046;28;20028;-59
2021/12/25 07:53:44;;;;;;;9.93;8.85;;;;;;;5.01;85.30;98782.38;5094051;28;20035;-59
2021/12/25 07:56:18;;;;;;;10.07;9.02;;;;;;;5.00;85.59;98783.19;5109943;28;20551;-59
2021/12/25 07:58:52;;;;;;;10.15;8.82;;;;;;;5.00;85.69;98786.63;5109903;28;20043;-59
2021/12/25 08:01:28;;;;;;;10.35;9.25;;;;;;;4.99;85.77;98797.72;5092414;28;20545;-59
2021/12/25 08:04:05;;;;;;;10.85;8.85;;;;;;;5.00;85.81;98788.34;5110362;28;20097;-60
2021/12/25 08:06:38;;;;;;;10.27;9.02;;;;;;;4.99;85.70;98796.88;5110541;28;20028;-60
2021/12/25 08:09:12;;;;;;;9.55;8.15;;;;;;;4.98;85.53;98793.41;5094616;28;20028;-59
2021/12/25 08:11:46;;;;;;;9.30;8.35;;;;;;;4.98;85.41;98798.56;5076333;28;20471;-59
2021/12/25 08:14:25;;;;;;;10.63;9.52;;;;;;;4.97;85.57;98799.44;5093691;28;20036;-59
2021/12/25 08:17:05;;;;;;;10.50;9.30;;;;;;;4.97;85.67;98793.41;5109649;28;20036;-59
2021/12/25 08:19:36;;;;;;;10.07;8.77;;;;;;;4.97;85.48;98803.69;5093909;28;20107;-59
2021/12/25 08:22:07;;;;;;;10.15;9.15;;;;;;;4.94;85.27;98814.75;5092266;28;20123;-59
2021/12/25 08:24:51;;;;;;;9.93;8.82;;;;;;;4.92;85.56;98811.31;5091577;28;20040;-59
2021/12/25 08:27:25;;;;;;;10.60;9.00;;;;;;;4.91;85.29;98808.69;5093206;28;20054;-59
2021/12/25 08:29:57;;;;;;;9.10;8.18;;;;;;;4.93;85.28;98822.41;5092134;28;20036;-59
2021/12/25 08:32:29;;;;;;;10.55;9.45;;;;;;;4.92;85.17;98815.56;5092711;28;20062;-59
2021/12/25 08:35:00;;;;;;;9.27;8.27;;;;;;;4.88;85.17;98812.94;5093563;28;20060;-59
2021/12/25 08:39:45;;;;;;;8.63;7.72;;;;;;;4.85;85.31;98825.72;5131888;27;20162;-59
2021/12/25 08:42:20;;;;;;;10.13;8.90;;;;;;;4.86;85.00;98826.56;5114010;28;20108;-59
2021/12/25 08:47:47;;;;;;;9.77;8.77;;;;;;;4.83;85.19;98837.66;5113685;28;20487;-59
2021/12/25 08:50:20;;;;;;;10.40;9.32;;;;;;;4.84;85.48;98838.50;5113372;28;20134;-59
2021/12/25 08:52:56;;;;;;;9.07;8.07;;;;;;;4.84;85.32;98846.22;5113943;28;20118;-60
2021/12/25 08:55:28;;;;;;;10.68;9.57;;;;;;;4.84;85.02;98857.38;5131781;28;20023;-59
2021/12/25 08:57:59;;;;;;;10.15;9.07;;;;;;;4.83;85.25;98857.31;5096156;28;20035;-59
2021/12/25 09:00:38;;;;;;;10.40;9.40;;;;;;;4.84;85.18;98849.66;5114027;28;20126;-59
2021/12/25 09:03:10;;;;;;;10.73;9.50;;;;;;;4.84;85.26;98848.78;5096309;28;20482;-59
2021/12/25 09:08:13;;;;;;;10.80;9.15;;;;;;;4.83;85.44;98858.19;5123801;27;20351;-59
2021/12/25 09:10:47;;;;;;;12.20;10.57;;;;;;;4.83;85.07;98871.03;5123432;28;20036;-59
2021/12/25 09:13:13;;;;;;;9.90;8.90;;;;;;;4.84;85.46;98869.31;5107158;28;20036;-59
2021/12/25 09:15:49;;;;;;;10.98;9.57;;;;;;;4.82;84.87;98865.88;5090962;28;20123;-59
2021/12/25 09:18:21;;;;;;;10.10;9.07;;;;;;;4.82;85.23;98882.13;5089781;28;20036;-59
2021/12/25 09:20:53;;;;;;;10.75;9.65;;;;;;;4.83;85.16;98883.88;5106666;28;20051;-59
2021/12/25 09:23:24;;;;;;;10.95;8.98;;;;;;;4.83;84.92;98881.31;5124372;28;20033;-59
2021/12/25 09:25:53;;;;;;;12.63;11.05;;;;;;;4.83;85.41;98878.75;5106254;28;20033;-59
2021/12/25 09:28:26;;;;;;;11.70;10.00;;;;;;;4.78;85.29;98879.47;5072563;28;20043;-59
2021/12/25 09:30:54;;;;;;;10.73;9.18;;;;;;;4.78;84.88;98882.91;5106329;28;20028;-59
2021/12/25 09:33:23;;;;;;;10.85;9.73;;;;;;;4.76;85.36;98889.69;5106409;28;20032;-59
2021/12/25 09:35:56;;;;;;;11.38;10.13;;;;;;;4.77;85.14;98895.72;5089888;28;20032;-60
2021/12/25 09:38:31;;;;;;;12.10;10.38;;;;;;;4.77;84.81;98898.28;5090070;28;20093;-58
2021/12/25 09:41:00;;;;;;;11.98;10.57;;;;;;;4.78;85.54;98898.31;5090479;28;20541;-59
2021/12/25 09:43:32;;;;;;;11.85;10.65;;;;;;;4.80;85.38;98906.06;5072608;28;20055;-59
2021/12/25 09:45:57;;;;;;;12.50;11.30;;;;;;;4.78;85.38;98906.00;5090320;28;20131;-60
2021/12/25 09:48:25;;;;;;;13.38;11.63;;;;;;;4.78;84.94;98907.72;5090347;28;20111;-59
2021/12/25 09:50:56;;;;;;;13.57;10.98;;;;;;;4.77;85.24;98906.84;5090189;28;20036;-59
2021/12/25 09:53:28;;;;;;;13.05;10.43;;;;;;;4.75;84.93;98905.09;5089158;28;20037;-59
2021/12/25 09:56:05;;;;;;;13.27;11.27;;;;;;;4.76;84.99;98915.38;5090266;28;20052;-59
2021/12/25 09:58:36;;;;;;;;;;;;;;;4.72;84.76;98918.72;5089411;28;20036;-59
2021/12/25 10:03:48;;;;;;;12.80;11.02;;;;;;;4.68;84.87;98927.19;5111662;27;20250;-60
2021/12/25 10:06:44;;;;;;;12.90;11.27;;;;;;;4.69;84.99;98916.09;5111543;28;20132;-59
2021/12/25 10:09:24;;;;;;;12.75;11.15;;;;;;;4.70;85.01;98916.13;5111339;28;20046;-60
2021/12/25 10:12:02;;;;;;;13.25;11.45;;;;;;;4.70;84.96;98921.25;5111164;28;20138;-59
2021/12/25 10:14:30;;;;;;;13.10;10.85;;;;;;;4.70;85.04;98923.81;5111243;28;20036;-59
2021/12/25 10:16:56;;;;;;;13.32;11.93;;;;;;;4.70;85.19;98921.25;5109921;28;20032;-59
2021/12/25 10:19:31;;;;;;;14.93;13.23;;;;;;;4.69;85.51;98924.66;5093151;28;20035;-59
2021/12/25 10:22:08;;;;;;;13.55;11.13;;;;;;;4.67;85.15;98923.75;5111558;28;20062;-59
2021/12/25 10:24:41;;;;;;;14.02;12.27;;;;;;;4.68;85.13;98922.06;5092830;28;20153;-59
2021/12/25 10:27:11;;;;;;;14.60;13.00;;;;;;;4.67;84.86;98918.59;5110041;28;20066;-59
2021/12/25 10:29:42;;;;;;;13.80;11.00;;;;;;;4.68;85.41;98924.63;5109672;28;20051;-59
2021/12/25 10:32:24;;;;;;;13.30;11.90;;;;;;;4.65;84.92;98919.41;5109635;28;20059;-59
2021/12/25 10:34:54;;;;;;;13.60;11.90;;;;;;;4.66;84.75;98916.03;5092948;28;20044;-59
2021/12/25 10:37:26;;;;;;;15.65;13.18;;;;;;;4.66;84.85;98911.78;5109949;28;20039;-59
2021/12/25 10:40:16;;;;;;;13.75;12.30;;;;;;;4.67;85.03;98910.91;5110160;28;20052;-59
2021/12/25 10:42:49;;;;;;;15.10;12.35;;;;;;;4.65;85.23;98907.47;5092446;28;20036;-59
2021/12/25 10:45:20;;;;;;;14.48;12.88;;;;;;;4.64;85.09;98907.41;5110722;28;20036;-59
2021/12/25 10:48:10;;;;;;;15.57;13.88;;;;;;;4.63;84.65;98908.25;5109727;28;20043;-59
2021/12/25 10:50:39;;;;;;;17.20;13.95;;;;;;;4.64;85.33;98908.28;5110530;28;20028;-59
2021/12/25 10:53:27;;;;;;;14.20;12.57;;;;;;;4.60;85.07;98900.47;5110996;28;20052;-59
2021/12/25 10:56:07;;;;;;;17.42;13.73;;;;;;;4.61;85.21;98903.09;5109817;28;20031;-59
2021/12/25 10:58:39;;;;;;;16.30;14.32;;;;;;;4.65;85.55;98911.72;5110741;28;20031;-59
2021/12/25 11:01:15;;;;;;;17.00;15.18;;;;;;;4.63;84.47;98901.44;5092291;28;20036;-59
2021/12/25 11:03:56;;;;;;;15.45;13.75;;;;;;;4.62;85.09;98901.38;5110853;28;20047;-59
2021/12/25 11:06:36;;;;;;;16.83;15.00;;;;;;;4.61;85.19;98897.97;5109406;28;20093;-59
2021/12/25 11:09:12;;;;;;;20.10;15.38;;;;;;;4.60;84.92;98896.22;5109191;28;20039;-59
2021/12/25 11:12:26;;;;;;;18.15;14.25;;;;;;;4.60;85.07;98890.22;5109295;28;20063;-60
2021/12/25 11:15:08;;;;;;;16.08;13.88;;;;;;;4.59;84.88;98879.09;5093071;28;20040;-60
2021/12/25 11:17:49;;;;;;;19.45;14.20;;;;;;;4.59;85.07;98876.53;5097059;28;20058;-60
2021/12/25 11:20:30;;;;;;;19.40;15.38;;;;;;;4.58;84.72;98872.22;5078291;28;20043;-60
2021/12/25 11:23:08;;;;;;;19.48;16.17;;;;;;;4.58;85.08;98877.34;5096748;28;20039;-60
2021/12/25 11:25:40;;;;;;;17.95;14.43;;;;;;;4.57;85.08;98880.75;5096670;28;20086;-60
2021/12/25 11:28:09;;;;;;;20.13;16.25;;;;;;;4.56;84.77;98885.03;5095179;28;20032;-59
2021/12/25 11:30:44;;;;;;;18.67;15.98;;;;;;;4.57;85.07;98889.34;5096092;28;20036;-59
2021/12/25 11:33:15;;;;;;;18.83;15.90;;;;;;;4.57;84.89;98893.59;5095488;28;20024;-59
2021/12/25 11:35:40;;;;;;;19.25;14.90;;;;;;;4.55;84.61;98898.69;5095135;28;20040;-59
2021/12/25 11:38:14;;;;;;;18.58;16.52;;;;;;;4.55;84.55;98900.38;5096529;28;20028;-59
2021/12/25 11:40:51;;;;;;;19.13;15.05;;;;;;;4.55;85.02;98897.81;5095017;28;20040;-59
2021/12/25 11:43:41;;;;;;;21.98;17.75;;;;;;;4.56;84.52;98899.53;5095038;28;20032;-59
2021/12/25 11:46:16;;;;;;;22.02;18.13;;;;;;;4.55;85.14;98903.81;5094451;28;20036;-59
2021/12/25 11:49:10;;;;;;;21.58;17.25;;;;;;;4.55;84.91;98903.81;5096171;28;20032;-60
2021/12/25 11:51:44;;;;;;;19.73;15.68;;;;;;;4.55;84.70;98910.66;5095819;28;20043;-59
2021/12/25 11:59:53;;;;;;;21.38;17.60;;;;;;;4.55;85.04;98903.81;5095637;28;20039;-59
2021/12/25 12:02:42;;;;;;;22.05;17.60;;;;;;;4.54;84.92;98904.66;5094218;28;20066;-59
2021/12/25 12:05:22;;;;;;;22.42;17.50;;;;;;;4.56;84.40;98914.94;5095598;28;20056;-59
2021/12/25 12:08:24;;;;;;;22.40;18.02;;;;;;;4.56;84.47;98910.69;5077658;28;20036;-59
2021/12/25 12:10:56;;;;;;;21.00;17.13;;;;;;;4.57;84.96;98916.69;5094561;28;20101;-59
2021/12/25 12:13:33;;;;;;;21.55;18.05;;;;;;;4.55;84.59;98913.22;5094438;28;20040;-59
2021/12/25 12:16:09;;;;;;;26.58;19.38;;;;;;;4.55;85.43;98915.78;5094391;28;20039;-59
2021/12/25 12:18:44;;;;;;;22.15;17.58;;;;;;;4.56;85.19;98908.13;5095573;28;20032;-59
2021/12/25 12:21:38;;;;;;;23.63;19.17;;;;;;;4.54;84.64;98903.78;5076986;28;20127;-59
2021/12/25 12:25:00;;;;;;;24.58;18.38;;;;;;;4.54;84.33;98902.09;5076934;28;20032;-59
2021/12/25 12:27:41;;;;;;;23.70;18.45;;;;;;;4.54;84.65;98903.78;5035822;28;20044;-59
2021/12/25 12:30:41;;;;;;;22.60;18.65;;;;;;;4.51;84.51;98908.88;5095432;28;20085;-59
2021/12/25 12:33:18;;;;;;;24.52;19.23;;;;;;;4.49;84.62;98898.56;5076863;28;20106;-59
2021/12/25 12:35:51;;;;;;;22.30;17.90;;;;;;;4.51;84.72;98904.59;5076790;28;20036;-60
2021/12/25 12:38:40;;;;;;;22.80;17.98;;;;;;;4.47;84.60;98900.22;5093990;28;20046;-60
2021/12/25 12:41:34;;;;;;;23.98;17.48;;;;;;;4.47;85.33;98897.66;5076821;28;20380;-59
2021/12/25 12:44:37;;;;;;;23.88;19.55;;;;;;;4.45;84.52;98886.47;5076893;28;20043;-59
2021/12/25 12:47:16;;;;;;;25.70;19.20;;;;;;;4.44;84.52;98897.56;5093239;28;20028;-60
2021/12/25 12:49:51;;;;;;;24.35;20.40;;;;;;;4.42;84.85;98892.41;5093599;28;20036;-60
2021/12/25 12:52:28;;;;;;;26.75;21.05;;;;;;;4.40;84.44;98898.34;5093981;28;20036;-60
2021/12/25 12:55:07;;;;;;;26.08;20.75;;;;;;;4.40;84.35;98896.66;5095004;28;20130;-60
2021/12/25 12:58:03;;;;;;;25.33;18.20;;;;;;;4.38;84.62;98900.03;5095560;28;20032;-59
2021/12/25 13:00:38;;;;;;;24.88;19.75;;;;;;;4.41;84.69;98905.22;5094399;28;20044;-59
2021/12/25 13:03:07;;;;;;;25.58;20.10;;;;;;;4.41;85.45;98900.09;5095135;28;20040;-59
2021/12/25 13:05:40;;;;;;;24.73;19.98;;;;;;;4.41;84.98;98900.94;5076219;28;20127;-59
2021/12/25 13:08:23;;;;;;;26.85;21.42;;;;;;;4.40;84.62;98899.22;5094528;28;20040;-59
2021/12/25 13:11:10;;;;;;;26.30;20.17;;;;;;;4.38;85.20;98906.00;5094311;28;20434;-59
2021/12/25 13:13:58;;;;;;;27.77;21.55;;;;;;;4.41;84.50;98902.66;5110538;28;20118;-59
2021/12/25 13:16:43;;;;;;;27.83;20.48;;;;;;;4.38;84.35;98912.84;5075978;28;20082;-59
2021/12/25 13:19:16;;;;;;;27.95;20.70;;;;;;;4.39;84.77;98907.72;5094499;28;20071;-60
2021/12/25 13:21:51;;;;;;;26.90;21.02;;;;;;;4.38;84.30;98916.25;5094794;28;20386;-59
2021/12/25 13:24:21;;;;;;;29.50;21.45;;;;;;;4.40;84.58;98917.16;5094259;28;20376;-59
2021/12/25 13:26:55;;;;;;;25.30;20.30;;;;;;;4.39;84.83;98919.72;5094603;28;20475;-59
2021/12/25 13:29:35;;;;;;;26.02;20.15;;;;;;;4.38;84.57;98915.41;5092769;28;20508;-59
2021/12/25 13:32:08;;;;;;;30.40;21.63;;;;;;;4.38;84.87;98921.41;5094312;28;20032;-59
2021/12/25 13:34:41;;;;;;;26.65;21.00;;;;;;;4.38;84.76;98916.25;5094028;28;20071;-59
2021/12/25 13:37:13;;;;;;;26.05;20.92;;;;;;;4.38;84.69;98918.81;5093508;28;20032;-59
2021/12/25 13:39:41;;;;;;;25.65;20.00;;;;;;;4.37;84.16;98918.81;5093699;28;20032;-59